Terminal Aerodrome Forecast
Issued by NWS Atlanta, GA

Home | Current Version | Previous Version | Text Only | Print | Product List | Glossary On
Versions: 1 2 3 4 5 6 7 8 9 10 11 12 13 14 15 16 17 18 19 20
000
FTUS42 KFFC 012100 AAB
TAFCSG
TAF AMD
KCSG 012142Z 0122/0218 VRB05KT P6SM VCSH BKN060 BKN150
      TEMPO 0122/0124 VRB15G30KT 3SM TSRA BKN045CB
     FM020100 20003KT P6SM FEW060 SCT150 SCT250
     FM021400 29005KT P6SM SCT035 SCT150=

USA.gov is the U.S. government's official web portal to all federal, state and local government web resources and services.